Tin City, Alaska
Current Conditions -  °F | °C
As of 11:22 PM on Saturday 20 Dec 2014 (Local Time) from PATC Reporting Station
Light Snow Light Snow  
Wind Chill: -19°   Ceiling: 1300
Heat Index:   Visibility: 0.25mi
Dew Point:   Wind: 40mph
Humidity: 92%   Direction: 30°NNE
Pressure: 29.47"   Gusts: 47mph
Location:  65.56°N, 167.92°W
Report Text: PATC 210822Z AUTO 03035G41KT 1/4SM -SN BKN013 M14/M15 A2947 RMK AO2 PK WND 03043/0756 SLP990 TSNO $
Loading
Personal Weather Stations






























Interactive Weather Map New forecast layout! Learn more

10-Day Weather Forecast

Advertisements
Track Severe Weather on mobile